createdAt,value
2023-11-10T00:00:33.702Z,15.75
2023-11-10T00:03:56.914Z,16.17
2023-11-10T00:10:05.305Z,15.70
2023-11-10T00:13:09.510Z,14.80
2023-11-10T00:16:12.736Z,17.35
2023-11-10T00:22:19.079Z,17.47
2023-11-10T00:25:22.217Z,18.77
2023-11-10T00:28:25.434Z,20.45
2023-11-10T00:31:43.224Z,14.73
2023-11-10T00:34:51.177Z,17.67
2023-11-10T00:37:54.386Z,17.42
2023-11-10T00:40:57.476Z,16.42
2023-11-10T00:44:00.636Z,17.08
2023-11-10T00:47:04.206Z,16.65
2023-11-10T00:50:07.909Z,17.37
2023-11-10T00:53:10.870Z,16.80
2023-11-10T00:56:13.910Z,19.15
2023-11-10T00:59:19.654Z,15.32
2023-11-10T01:02:22.734Z,15.82
2023-11-10T01:05:26.369Z,17.35
2023-11-10T01:08:29.515Z,19.00
2023-11-10T01:11:34.029Z,17.23
2023-11-10T01:14:37.310Z,18.52
2023-11-10T01:17:41.829Z,17.98
2023-11-10T01:20:46.188Z,15.13
2023-11-10T01:23:51.767Z,14.45
2023-11-10T01:27:02.115Z,16.45
2023-11-10T01:30:05.781Z,17.55
2023-11-10T01:33:09.553Z,17.65
2023-11-10T01:36:12.724Z,15.77
2023-11-10T01:39:15.837Z,17.10
2023-11-10T01:42:19.464Z,18.17
2023-11-10T01:45:22.641Z,18.62
2023-11-10T01:48:26.963Z,17.95
2023-11-10T01:51:32.341Z,19.40
2023-11-10T01:54:37.079Z,17.45
2023-11-10T01:57:40.282Z,16.80
2023-11-10T02:03:46.871Z,19.37
2023-11-10T02:06:49.901Z,21.17
2023-11-10T02:09:53.433Z,18.12
2023-11-10T02:12:57.872Z,18.55
2023-11-10T02:16:01.165Z,17.00
2023-11-10T02:19:05.183Z,19.83
2023-11-10T02:22:08.684Z,17.85
2023-11-10T02:25:17.824Z,20.67
2023-11-10T02:28:21.336Z,19.02
2023-11-10T02:31:24.236Z,17.12
2023-11-10T02:34:28.023Z,16.67
2023-11-10T02:37:30.909Z,16.52
2023-11-10T02:40:36.977Z,18.02
2023-11-10T02:43:39.942Z,18.40
2023-11-10T02:46:44.937Z,19.37
2023-11-10T02:49:47.715Z,19.70
2023-11-10T02:55:53.447Z,16.70
2023-11-10T02:58:57.303Z,17.10
2023-11-10T03:02:00.079Z,18.23
2023-11-10T03:05:04.084Z,18.52
2023-11-10T03:08:07.263Z,19.58
2023-11-10T03:11:25.388Z,18.30
2023-11-10T03:14:31.101Z,19.05
2023-11-10T03:17:35.039Z,18.02
2023-11-10T03:23:40.940Z,19.35
2023-11-10T03:26:43.669Z,19.48
2023-11-10T03:32:50.249Z,19.60
2023-11-10T03:35:54.245Z,17.70
2023-11-10T03:38:56.987Z,18.37
2023-11-10T03:45:05.349Z,17.98
2023-11-10T03:48:09.112Z,18.50
2023-11-10T03:51:12.821Z,16.85
2023-11-10T03:54:16.494Z,18.80
2023-11-10T03:57:19.283Z,21.62
2023-11-10T04:03:43.865Z,16.83
2023-11-10T04:06:47.075Z,15.98
2023-11-10T04:09:50.346Z,19.92
2023-11-10T04:12:53.665Z,19.55
2023-11-10T04:19:01.185Z,18.67
2023-11-10T04:22:04.302Z,19.05
2023-11-10T04:25:07.682Z,17.87
2023-11-10T04:31:17.464Z,16.83
2023-11-10T04:34:20.808Z,17.15
2023-11-10T04:37:24.412Z,20.17
2023-11-10T04:40:29.371Z,17.15
2023-11-10T04:43:32.471Z,18.25
2023-11-10T04:46:45.369Z,15.90
2023-11-10T04:49:49.590Z,18.40
2023-11-10T04:52:53.179Z,18.67
2023-11-10T04:56:02.273Z,17.10
2023-11-10T04:59:05.387Z,17.58
2023-11-10T05:02:10.215Z,16.58
2023-11-10T05:05:14.673Z,17.15
2023-11-10T05:08:17.753Z,26.05
2023-11-10T05:11:20.776Z,17.87
2023-11-10T05:14:24.011Z,18.40
2023-11-10T05:17:26.927Z,17.25
2023-11-10T05:20:33.601Z,17.00
2023-11-10T05:23:42.129Z,21.42
2023-11-10T05:26:45.989Z,17.83
2023-11-10T05:29:48.952Z,18.48
2023-11-10T05:32:51.955Z,16.73
2023-11-10T05:35:54.931Z,19.02
2023-11-10T05:38:58.109Z,18.08
2023-11-10T05:45:04.495Z,18.30
2023-11-10T05:48:07.585Z,19.05
2023-11-10T05:51:10.572Z,21.40
2023-11-10T05:54:15.124Z,21.95
2023-11-10T05:57:18.711Z,19.52
2023-11-10T06:00:23.656Z,20.33
2023-11-10T06:03:28.510Z,22.60
2023-11-10T06:06:31.638Z,23.35
2023-11-10T06:12:39.359Z,20.58
2023-11-10T06:15:42.748Z,22.52
2023-11-10T06:18:47.061Z,21.60
2023-11-10T06:21:52.125Z,19.45
2023-11-10T06:24:55.136Z,21.33
2023-11-10T06:31:01.012Z,23.15
2023-11-10T06:34:04.758Z,22.90
2023-11-10T06:37:07.502Z,23.20
2023-11-10T06:40:11.981Z,22.05
2023-11-10T06:43:14.671Z,21.67
2023-11-10T06:46:24.932Z,21.42
2023-11-10T06:49:27.851Z,21.62
2023-11-10T06:52:32.205Z,20.85
2023-11-10T06:55:35.726Z,23.40
2023-11-10T06:58:40.668Z,22.45
2023-11-10T07:01:44.120Z,22.13
2023-11-10T07:04:47.358Z,24.10
2023-11-10T07:07:52.301Z,20.67
2023-11-10T07:10:59.314Z,20.25
2023-11-10T07:14:03.916Z,23.35
2023-11-10T07:17:07.541Z,23.20
2023-11-10T07:20:16.074Z,22.10
2023-11-10T07:23:26.305Z,24.45
2023-11-10T07:26:30.019Z,23.80
2023-11-10T07:29:37.897Z,21.45
2023-11-10T07:32:40.613Z,21.67
2023-11-10T07:35:43.998Z,20.50
2023-11-10T07:38:46.744Z,21.05
2023-11-10T07:44:52.623Z,21.58
2023-11-10T07:47:59.054Z,19.58
2023-11-10T07:51:03.435Z,20.92
2023-11-10T07:54:09.438Z,17.45
2023-11-10T07:57:12.887Z,22.45
2023-11-10T08:00:21.395Z,20.67
2023-11-10T08:03:27.411Z,20.60
2023-11-10T08:06:31.689Z,21.77
2023-11-10T08:09:36.123Z,18.05
2023-11-10T08:12:41.935Z,19.02
2023-11-10T08:15:49.304Z,20.12
2023-11-10T08:18:57.644Z,21.12
2023-11-10T08:22:03.919Z,17.87
2023-11-10T08:25:07.806Z,17.90
2023-11-10T08:28:10.821Z,18.45
2023-11-10T08:34:18.545Z,16.42
2023-11-10T08:37:21.642Z,16.27
2023-11-10T08:40:24.704Z,15.25
2023-11-10T08:43:27.768Z,17.00
2023-11-10T08:46:31.477Z,14.52
2023-11-10T08:49:34.432Z,17.77
2023-11-10T08:52:39.911Z,15.82
2023-11-10T08:55:43.464Z,18.20
2023-11-10T08:58:46.413Z,20.00
2023-11-10T09:01:50.471Z,19.92
2023-11-10T09:04:53.597Z,17.70
2023-11-10T09:07:56.976Z,18.65
2023-11-10T09:11:00.076Z,16.10
2023-11-10T09:14:04.520Z,18.58
2023-11-10T09:17:08.546Z,15.10
2023-11-10T09:23:17.859Z,15.43
2023-11-10T09:26:25.889Z,16.08
2023-11-10T09:29:29.180Z,13.98
2023-11-10T09:32:37.807Z,14.30
2023-11-10T09:35:43.224Z,16.73
2023-11-10T09:38:49.135Z,12.95
2023-11-10T09:41:57.889Z,13.35
2023-11-10T09:45:03.104Z,14.02
2023-11-10T09:48:09.622Z,15.27
2023-11-10T09:51:14.575Z,16.73
2023-11-10T09:54:20.948Z,16.90
2023-11-10T09:57:29.260Z,14.20
2023-11-10T10:00:34.371Z,16.48
2023-11-10T10:03:38.527Z,15.95
2023-11-10T10:06:51.687Z,19.87
2023-11-10T10:09:56.771Z,12.48
2023-11-10T10:12:59.490Z,16.02
2023-11-10T10:16:07.444Z,13.98
2023-11-10T10:19:14.906Z,14.10
2023-11-10T10:22:29.435Z,15.43
2023-11-10T10:25:58.637Z,14.77
2023-11-10T10:29:02.374Z,15.50
2023-11-10T10:35:08.876Z,13.38
2023-11-10T10:38:15.439Z,16.75
2023-11-10T10:41:21.836Z,13.75
2023-11-10T10:44:25.047Z,12.20
2023-11-10T10:47:29.250Z,13.30
2023-11-10T10:50:34.562Z,15.50
2023-11-10T10:53:40.511Z,13.13
2023-11-10T10:56:45.786Z,13.02
2023-11-10T10:59:51.060Z,13.15
2023-11-10T11:03:00.402Z,13.57
2023-11-10T11:06:28.562Z,13.35
2023-11-10T11:09:37.351Z,18.55
2023-11-10T11:13:20.488Z,13.20
2023-11-10T11:16:38.751Z,15.77
2023-11-10T11:19:44.400Z,12.70
2023-11-10T11:22:48.648Z,12.18
2023-11-10T11:26:01.925Z,13.20
2023-11-10T11:29:08.745Z,14.10
2023-11-10T11:32:20.783Z,11.85
2023-11-10T11:35:23.773Z,12.75
2023-11-10T11:41:31.391Z,10.20
2023-11-10T11:44:38.044Z,12.23
2023-11-10T11:47:41.636Z,9.15
2023-11-10T11:50:44.916Z,13.70
2023-11-10T11:53:47.525Z,12.02
2023-11-10T11:56:51.489Z,10.52
2023-11-10T11:59:56.384Z,10.15
2023-11-10T12:02:59.991Z,12.37
2023-11-10T12:06:05.267Z,10.80
2023-11-10T12:09:08.517Z,13.93
2023-11-10T12:12:25.462Z,11.50
2023-11-10T12:15:49.482Z,12.25
2023-11-10T12:18:57.215Z,11.35
2023-11-10T12:22:25.468Z,11.95
2023-11-10T12:25:47.346Z,12.90
2023-11-10T12:29:03.978Z,14.50
2023-11-10T12:32:09.017Z,10.32
2023-11-10T12:35:15.533Z,12.48
2023-11-10T12:38:18.517Z,11.45
2023-11-10T12:41:21.474Z,12.70
2023-11-10T12:44:25.159Z,13.15
2023-11-10T12:47:34.969Z,11.35
2023-11-10T12:50:38.298Z,13.07
2023-11-10T12:56:45.124Z,10.73
2023-11-10T13:02:51.047Z,12.20
2023-11-10T13:05:56.465Z,9.88
2023-11-10T13:09:00.565Z,16.05
2023-11-10T13:12:07.317Z,11.40
2023-11-10T13:15:10.691Z,11.40
2023-11-10T13:18:16.439Z,10.98
2023-11-10T13:21:23.485Z,10.45
2023-11-10T13:24:27.656Z,9.55
2023-11-10T13:27:31.917Z,11.45
2023-11-10T13:30:37.437Z,12.45
2023-11-10T13:33:43.830Z,12.15
2023-11-10T13:36:48.507Z,12.60
2023-11-10T13:39:53.781Z,12.68
2023-11-10T13:42:59.267Z,11.80
2023-11-10T13:46:02.516Z,11.10
2023-11-10T13:52:12.696Z,12.30
2023-11-10T13:55:15.757Z,11.00
2023-11-10T13:58:18.733Z,12.20
2023-11-10T14:01:21.818Z,12.07
2023-11-10T14:04:26.027Z,10.27
2023-11-10T14:07:29.045Z,11.35
2023-11-10T14:10:32.114Z,12.75
2023-11-10T14:13:39.187Z,14.90
2023-11-10T14:16:42.359Z,11.85
2023-11-10T14:19:45.286Z,10.88
2023-11-10T14:22:48.277Z,11.10
2023-11-10T14:25:51.576Z,12.13
2023-11-10T14:28:54.979Z,11.05
2023-11-10T14:32:00.187Z,11.10
2023-11-10T14:35:04.398Z,12.05
2023-11-10T14:38:09.465Z,15.55
2023-11-10T14:41:12.541Z,11.25
2023-11-10T14:44:16.033Z,9.55
2023-11-10T14:47:20.850Z,10.75
2023-11-10T14:50:50.262Z,10.63
2023-11-10T14:53:53.257Z,12.43
2023-11-10T14:56:56.200Z,11.45
2023-11-10T14:59:59.185Z,11.82
2023-11-10T15:03:05.311Z,12.10
2023-11-10T15:06:09.181Z,11.88
2023-11-10T15:09:13.680Z,11.65
2023-11-10T15:12:16.715Z,11.40
2023-11-10T15:15:19.876Z,11.68
2023-11-10T15:18:25.074Z,11.32
2023-11-10T15:21:28.591Z,12.95
2023-11-10T15:24:32.546Z,13.32
2023-11-10T15:27:35.945Z,10.70
2023-11-10T15:30:39.528Z,11.50
2023-11-10T15:33:42.570Z,12.10
2023-11-10T15:36:56.115Z,12.85
2023-11-10T15:40:00.846Z,11.82
2023-11-10T15:43:07.145Z,16.15
2023-11-10T15:46:10.244Z,14.82
2023-11-10T15:49:15.603Z,13.05
2023-11-10T15:52:19.603Z,13.23
2023-11-10T15:55:22.864Z,13.70
2023-11-10T15:58:25.813Z,14.85
2023-11-10T16:01:28.932Z,13.05
2023-11-10T16:04:32.408Z,13.80
2023-11-10T16:07:36.056Z,15.95
2023-11-10T16:10:39.705Z,16.20
2023-11-10T16:13:42.903Z,17.33
2023-11-10T16:19:48.878Z,14.68
2023-11-10T16:25:55.244Z,15.48
2023-11-10T16:29:06.807Z,15.90
2023-11-10T16:32:10.050Z,15.70
2023-11-10T16:35:13.534Z,14.57
2023-11-10T16:38:18.638Z,13.20
2023-11-10T16:41:27.489Z,14.50
2023-11-10T16:44:30.190Z,15.48
2023-11-10T16:50:37.365Z,13.27
2023-11-10T16:53:40.598Z,13.25
2023-11-10T16:56:43.302Z,12.55
2023-11-10T16:59:46.974Z,15.25
2023-11-10T17:02:52.495Z,16.90
2023-11-10T17:05:59.080Z,14.35
2023-11-10T17:09:02.012Z,14.23
2023-11-10T17:12:07.977Z,12.37
2023-11-10T17:15:12.304Z,12.63
2023-11-10T17:18:18.303Z,12.05
2023-11-10T17:24:25.472Z,14.70
2023-11-10T17:27:28.424Z,12.35
2023-11-10T17:33:40.280Z,13.02
2023-11-10T17:36:49.525Z,21.20
2023-11-10T17:39:53.986Z,14.82
2023-11-10T17:42:57.354Z,12.48
2023-11-10T17:46:00.314Z,13.57
2023-11-10T17:49:04.099Z,13.20
2023-11-10T17:52:07.538Z,13.15
2023-11-10T17:55:14.249Z,13.55
2023-11-10T17:58:24.055Z,14.00
2023-11-10T18:01:28.621Z,15.65
2023-11-10T18:09:27.797Z,17.10
2023-11-10T18:12:38.600Z,19.40
2023-11-10T18:15:41.808Z,14.07
2023-11-10T18:18:44.997Z,18.10
2023-11-10T18:21:48.156Z,16.70
2023-11-10T18:25:04.484Z,16.75
2023-11-10T18:28:07.530Z,19.85
2023-11-10T18:31:10.530Z,15.73
2023-11-10T18:34:14.754Z,17.85
2023-11-10T18:37:18.151Z,15.70
2023-11-10T18:46:31.449Z,15.35
2023-11-10T18:49:34.518Z,15.38
2023-11-10T18:52:37.500Z,19.35
2023-11-10T18:55:40.651Z,16.62
2023-11-10T18:58:43.598Z,15.15
2023-11-10T19:01:46.691Z,16.15
2023-11-10T19:04:51.072Z,16.17
2023-11-10T19:07:54.128Z,15.82
2023-11-10T19:10:57.054Z,14.85
2023-11-10T19:14:01.304Z,17.40
2023-11-10T19:17:05.840Z,16.58
2023-11-10T19:20:09.109Z,17.80
2023-11-10T19:23:11.999Z,16.52
2023-11-10T19:26:15.880Z,16.33
2023-11-10T19:29:18.739Z,28.55
2023-11-10T19:32:22.560Z,21.08
2023-11-10T19:35:26.008Z,18.30
2023-11-10T19:41:32.845Z,15.95
2023-11-10T19:44:37.151Z,19.50
2023-11-10T19:47:40.383Z,31.73
2023-11-10T19:50:43.297Z,26.35
2023-11-10T19:54:56.547Z,28.15
2023-11-10T19:57:11.030Z,24.77
2023-11-10T20:03:21.583Z,24.27
2023-11-10T20:06:24.722Z,20.60
2023-11-10T20:09:28.748Z,17.37
2023-11-10T20:12:32.758Z,19.52
2023-11-10T20:15:36.659Z,20.25
2023-11-10T20:18:39.829Z,19.73
2023-11-10T20:21:42.926Z,19.48
2023-11-10T20:24:46.466Z,18.10
2023-11-10T20:27:49.607Z,20.05
2023-11-10T20:30:53.010Z,16.90
2023-11-10T20:33:57.463Z,18.17
2023-11-10T20:37:02.944Z,16.00
2023-11-10T20:40:11.042Z,16.08
2023-11-10T20:43:17.133Z,17.83
2023-11-10T20:46:20.808Z,17.05
2023-11-10T20:49:39.622Z,15.93
2023-11-10T20:52:45.079Z,15.98
2023-11-10T20:55:47.965Z,16.50
2023-11-10T20:59:21.901Z,15.63
2023-11-10T21:05:27.845Z,16.27
2023-11-10T21:08:30.797Z,15.35
2023-11-10T21:11:33.967Z,16.02
2023-11-10T21:14:37.003Z,15.65
2023-11-10T21:17:40.240Z,17.58
2023-11-10T21:20:46.494Z,65.50
2023-11-10T21:23:50.035Z,39.42
2023-11-10T21:26:52.988Z,18.30
2023-11-10T21:29:55.973Z,17.87
2023-11-10T21:33:00.434Z,18.37
2023-11-10T21:36:04.081Z,16.08
2023-11-10T21:39:12.306Z,17.40
2023-11-10T21:42:15.402Z,15.23
2023-11-10T21:45:19.407Z,16.62
2023-11-10T21:48:22.616Z,15.30
2023-11-10T21:51:25.744Z,17.12
2023-11-10T21:54:30.081Z,18.05
2023-11-10T21:57:33.170Z,16.87
2023-11-10T22:00:36.507Z,15.65
2023-11-10T22:03:42.334Z,15.75
2023-11-10T22:06:45.875Z,14.45
2023-11-10T22:09:49.158Z,14.02
2023-11-10T22:12:54.403Z,15.23
2023-11-10T22:15:57.567Z,14.87
2023-11-10T22:19:00.502Z,14.18
2023-11-10T22:22:04.824Z,14.48
2023-11-10T22:25:11.860Z,13.48
2023-11-10T22:28:21.109Z,13.52
2023-11-10T22:31:24.095Z,13.52
2023-11-10T22:34:27.882Z,13.98
2023-11-10T22:37:32.634Z,12.93
2023-11-10T22:40:37.167Z,14.25
2023-11-10T22:43:40.887Z,12.52
2023-11-10T22:46:44.793Z,13.35
2023-11-10T22:49:48.652Z,13.45
2023-11-10T22:52:52.488Z,13.23
2023-11-10T22:55:55.455Z,13.18
2023-11-10T22:59:02.076Z,12.65
2023-11-10T23:02:05.921Z,13.18
2023-11-10T23:05:11.155Z,12.75
2023-11-10T23:08:14.356Z,13.20
2023-11-10T23:11:17.620Z,13.32
2023-11-10T23:14:21.536Z,12.52
2023-11-10T23:17:25.110Z,13.20
2023-11-10T23:20:34.481Z,13.55
2023-11-10T23:23:38.744Z,14.10
2023-11-10T23:26:41.699Z,13.30
2023-11-10T23:29:45.039Z,12.65
2023-11-10T23:32:49.074Z,13.45
2023-11-10T23:36:01.596Z,13.90
2023-11-10T23:39:05.010Z,14.65
2023-11-10T23:42:09.310Z,22.87
2023-11-10T23:45:12.022Z,16.83
2023-11-10T23:48:15.415Z,16.60
2023-11-10T23:51:18.248Z,16.73
2023-11-10T23:57:24.270Z,15.27
